Terminal Aerodrome Forecast
Issued by NWS Albany, NY

Home | Current Version | Previous Version | Text Only | Print | Product List | Glossary On
Versions: 1 2 3 4 5 6 7 8 9 10 11 12
000
FTUS41 KALY 222321
TAFPOU
TAF
KPOU 222321Z 2300/2324 15004KT P6SM FEW200
     FM230700 16004KT 2SM BR SCT250
     FM231200 15004KT 2SM BR BKN030
     FM231300 15005KT P6SM BKN030
     FM231900 16009KT P6SM BKN025 PROB30 2322/2323 4SM -SHRA OVC015
     FM232300 15007KT P6SM BKN050 PROB30 2323/2324 4SM -SHRA OVC025=

USA.gov is the U.S. government's official web portal to all federal, state and local government web resources and services.